sensor_id;sensor_type;location;lat;lon;timestamp;P1;durP1;ratioP1;P2;durP2;ratioP2
55720;SDS011;41626;53.098;6.168;2023-06-05T00:01:18;8.03;;;7.27;;
55720;SDS011;41626;53.098;6.168;2023-06-05T00:03:44;8.37;;;7.07;;
55720;SDS011;41626;53.098;6.168;2023-06-05T00:06:09;7.77;;;6.33;;
55720;SDS011;41626;53.098;6.168;2023-06-05T00:08:35;8.45;;;6.53;;
55720;SDS011;41626;53.098;6.168;2023-06-05T00:11:01;8.30;;;7.22;;
55720;SDS011;41626;53.098;6.168;2023-06-05T00:13:27;9.10;;;6.07;;
55720;SDS011;41626;53.098;6.168;2023-06-05T00:15:52;7.10;;;6.40;;
55720;SDS011;41626;53.098;6.168;2023-06-05T00:18:18;7.75;;;7.05;;
55720;SDS011;41626;53.098;6.168;2023-06-05T00:20:44;10.32;;;7.60;;
55720;SDS011;41626;53.098;6.168;2023-06-05T00:23:10;8.15;;;7.18;;
55720;SDS011;41626;53.098;6.168;2023-06-05T00:25:36;8.27;;;7.47;;
55720;SDS011;41626;53.098;6.168;2023-06-05T00:28:02;7.77;;;6.87;;
55720;SDS011;41626;53.098;6.168;2023-06-05T00:30:28;7.40;;;6.50;;
55720;SDS011;41626;53.098;6.168;2023-06-05T00:32:53;7.67;;;6.80;;
55720;SDS011;41626;53.098;6.168;2023-06-05T00:35:19;7.47;;;6.83;;
55720;SDS011;41626;53.098;6.168;2023-06-05T00:37:45;8.50;;;6.77;;
55720;SDS011;41626;53.098;6.168;2023-06-05T00:40:12;10.73;;;6.75;;
55720;SDS011;41626;53.098;6.168;2023-06-05T00:42:37;9.63;;;7.00;;
55720;SDS011;41626;53.098;6.168;2023-06-05T00:45:03;10.83;;;7.97;;
55720;SDS011;41626;53.098;6.168;2023-06-05T00:47:30;7.85;;;7.05;;
55720;SDS011;41626;53.098;6.168;2023-06-05T00:49:57;8.13;;;7.32;;
55720;SDS011;41626;53.098;6.168;2023-06-05T00:52:23;7.82;;;6.80;;
55720;SDS011;41626;53.098;6.168;2023-06-05T00:54:48;8.50;;;7.03;;
55720;SDS011;41626;53.098;6.168;2023-06-05T00:57:14;9.83;;;8.30;;
55720;SDS011;41626;53.098;6.168;2023-06-05T00:59:40;8.47;;;7.57;;
55720;SDS011;41626;53.098;6.168;2023-06-05T01:02:10;8.23;;;7.43;;
55720;SDS011;41626;53.098;6.168;2023-06-05T01:04:38;7.82;;;7.00;;
55720;SDS011;41626;53.098;6.168;2023-06-05T01:07:11;8.32;;;7.45;;
55720;SDS011;41626;53.098;6.168;2023-06-05T01:09:39;7.90;;;7.20;;
55720;SDS011;41626;53.098;6.168;2023-06-05T01:12:11;8.07;;;7.28;;
55720;SDS011;41626;53.098;6.168;2023-06-05T01:14:51;8.65;;;7.20;;
55720;SDS011;41626;53.098;6.168;2023-06-05T01:17:23;9.77;;;7.38;;
55720;SDS011;41626;53.098;6.168;2023-06-05T01:19:54;10.82;;;7.70;;
55720;SDS011;41626;53.098;6.168;2023-06-05T01:22:20;9.40;;;7.60;;
55720;SDS011;41626;53.098;6.168;2023-06-05T01:24:46;10.47;;;7.63;;
55720;SDS011;41626;53.098;6.168;2023-06-05T01:27:19;8.02;;;7.28;;
55720;SDS011;41626;53.098;6.168;2023-06-05T01:35:38;8.02;;;6.80;;
55720;SDS011;41626;53.098;6.168;2023-06-05T01:38:06;9.38;;;7.05;;
55720;SDS011;41626;53.098;6.168;2023-06-05T01:40:35;7.20;;;6.45;;
55720;SDS011;41626;53.098;6.168;2023-06-05T01:43:01;7.18;;;6.20;;
55720;SDS011;41626;53.098;6.168;2023-06-05T01:45:28;8.48;;;6.43;;
55720;SDS011;41626;53.098;6.168;2023-06-05T01:47:55;7.40;;;6.60;;
55720;SDS011;41626;53.098;6.168;2023-06-05T01:50:21;7.00;;;5.70;;
55720;SDS011;41626;53.098;6.168;2023-06-05T01:52:48;6.45;;;5.85;;
55720;SDS011;41626;53.098;6.168;2023-06-05T01:55:17;7.68;;;5.65;;
55720;SDS011;41626;53.098;6.168;2023-06-05T01:57:48;9.13;;;5.68;;
55720;SDS011;41626;53.098;6.168;2023-06-05T02:00:15;6.30;;;5.28;;
55720;SDS011;41626;53.098;6.168;2023-06-05T02:02:42;7.85;;;5.70;;
55720;SDS011;41626;53.098;6.168;2023-06-05T02:05:10;11.40;;;5.93;;
55720;SDS011;41626;53.098;6.168;2023-06-05T02:07:41;7.13;;;4.85;;
55720;SDS011;41626;53.098;6.168;2023-06-05T02:10:09;6.43;;;5.30;;
55720;SDS011;41626;53.098;6.168;2023-06-05T02:12:35;5.40;;;4.88;;
55720;SDS011;41626;53.098;6.168;2023-06-05T02:15:06;5.20;;;4.70;;
55720;SDS011;41626;53.098;6.168;2023-06-05T02:17:33;8.25;;;4.97;;
55720;SDS011;41626;53.098;6.168;2023-06-05T02:19:59;5.35;;;4.85;;
55720;SDS011;41626;53.098;6.168;2023-06-05T02:22:26;5.53;;;5.00;;
55720;SDS011;41626;53.098;6.168;2023-06-05T02:24:51;5.73;;;4.90;;
55720;SDS011;41626;53.098;6.168;2023-06-05T02:27:18;6.13;;;5.13;;
55720;SDS011;41626;53.098;6.168;2023-06-05T02:29:44;5.93;;;5.32;;
55720;SDS011;41626;53.098;6.168;2023-06-05T02:32:10;7.38;;;5.30;;
55720;SDS011;41626;53.098;6.168;2023-06-05T02:34:36;5.80;;;5.20;;
55720;SDS011;41626;53.098;6.168;2023-06-05T02:37:02;6.28;;;5.55;;
55720;SDS011;41626;53.098;6.168;2023-06-05T02:39:28;8.83;;;6.30;;
55720;SDS011;41626;53.098;6.168;2023-06-05T02:41:56;8.07;;;6.25;;
55720;SDS011;41626;53.098;6.168;2023-06-05T02:44:22;7.45;;;6.55;;
55720;SDS011;41626;53.098;6.168;2023-06-05T02:46:48;9.50;;;6.85;;
55720;SDS011;41626;53.098;6.168;2023-06-05T02:49:14;6.27;;;5.63;;
55720;SDS011;41626;53.098;6.168;2023-06-05T02:51:39;7.53;;;6.70;;
55720;SDS011;41626;53.098;6.168;2023-06-05T02:54:05;8.77;;;6.57;;
55720;SDS011;41626;53.098;6.168;2023-06-05T02:56:31;8.47;;;6.90;;
55720;SDS011;41626;53.098;6.168;2023-06-05T02:58:57;7.95;;;6.88;;
55720;SDS011;41626;53.098;6.168;2023-06-05T03:01:23;8.07;;;7.27;;
55720;SDS011;41626;53.098;6.168;2023-06-05T03:03:50;7.85;;;6.90;;
55720;SDS011;41626;53.098;6.168;2023-06-05T03:06:17;8.20;;;7.40;;
55720;SDS011;41626;53.098;6.168;2023-06-05T03:08:43;7.88;;;7.07;;
55720;SDS011;41626;53.098;6.168;2023-06-05T03:11:09;8.48;;;7.57;;
55720;SDS011;41626;53.098;6.168;2023-06-05T03:13:35;10.30;;;7.95;;
55720;SDS011;41626;53.098;6.168;2023-06-05T03:16:01;8.45;;;7.32;;
55720;SDS011;41626;53.098;6.168;2023-06-05T03:18:27;8.25;;;7.47;;
55720;SDS011;41626;53.098;6.168;2023-06-05T03:20:54;8.02;;;7.32;;
55720;SDS011;41626;53.098;6.168;2023-06-05T03:23:24;7.45;;;6.57;;
55720;SDS011;41626;53.098;6.168;2023-06-05T03:25:52;8.50;;;7.25;;
55720;SDS011;41626;53.098;6.168;2023-06-05T03:28:20;6.97;;;6.28;;
55720;SDS011;41626;53.098;6.168;2023-06-05T03:30:46;7.32;;;6.47;;
55720;SDS011;41626;53.098;6.168;2023-06-05T03:33:13;8.43;;;5.53;;
55720;SDS011;41626;53.098;6.168;2023-06-05T03:35:40;6.38;;;5.78;;
55720;SDS011;41626;53.098;6.168;2023-06-05T03:38:08;6.25;;;5.05;;
55720;SDS011;41626;53.098;6.168;2023-06-05T03:40:34;6.13;;;4.50;;
55720;SDS011;41626;53.098;6.168;2023-06-05T03:43:00;6.22;;;4.40;;
55720;SDS011;41626;53.098;6.168;2023-06-05T03:45:26;3.90;;;3.60;;
55720;SDS011;41626;53.098;6.168;2023-06-05T03:47:52;5.30;;;4.15;;
55720;SDS011;41626;53.098;6.168;2023-06-05T03:50:19;6.22;;;3.92;;
55720;SDS011;41626;53.098;6.168;2023-06-05T03:52:45;4.82;;;3.70;;
55720;SDS011;41626;53.098;6.168;2023-06-05T03:55:18;3.42;;;3.13;;
55720;SDS011;41626;53.098;6.168;2023-06-05T03:57:46;5.72;;;3.70;;
55720;SDS011;41626;53.098;6.168;2023-06-05T04:00:12;4.50;;;3.30;;
55720;SDS011;41626;53.098;6.168;2023-06-05T04:02:40;5.30;;;3.40;;
55720;SDS011;41626;53.098;6.168;2023-06-05T04:05:06;4.30;;;3.30;;
55720;SDS011;41626;53.098;6.168;2023-06-05T04:07:36;3.35;;;2.90;;
55720;SDS011;41626;53.098;6.168;2023-06-05T04:10:02;3.95;;;2.60;;
55720;SDS011;41626;53.098;6.168;2023-06-05T04:12:28;3.08;;;2.60;;
55720;SDS011;41626;53.098;6.168;2023-06-05T04:14:54;3.35;;;2.70;;
55720;SDS011;41626;53.098;6.168;2023-06-05T04:17:19;3.58;;;2.67;;
55720;SDS011;41626;53.098;6.168;2023-06-05T04:19:45;2.80;;;2.07;;
55720;SDS011;41626;53.098;6.168;2023-06-05T04:22:10;2.83;;;2.00;;
55720;SDS011;41626;53.098;6.168;2023-06-05T04:24:36;3.80;;;2.17;;
55720;SDS011;41626;53.098;6.168;2023-06-05T04:27:04;3.22;;;2.40;;
55720;SDS011;41626;53.098;6.168;2023-06-05T04:29:30;4.45;;;2.90;;
55720;SDS011;41626;53.098;6.168;2023-06-05T04:31:57;3.70;;;2.97;;
55720;SDS011;41626;53.098;6.168;2023-06-05T04:34:23;2.92;;;2.60;;
55720;SDS011;41626;53.098;6.168;2023-06-05T04:36:49;2.90;;;2.10;;
55720;SDS011;41626;53.098;6.168;2023-06-05T04:39:16;3.40;;;2.40;;
55720;SDS011;41626;53.098;6.168;2023-06-05T04:41:43;2.50;;;2.22;;
55720;SDS011;41626;53.098;6.168;2023-06-05T04:44:11;3.05;;;2.60;;
55720;SDS011;41626;53.098;6.168;2023-06-05T04:46:44;2.50;;;2.30;;
55720;SDS011;41626;53.098;6.168;2023-06-05T04:49:13;4.45;;;2.47;;
55720;SDS011;41626;53.098;6.168;2023-06-05T04:51:40;4.55;;;2.70;;
55720;SDS011;41626;53.098;6.168;2023-06-05T04:54:06;4.30;;;2.72;;
55720;SDS011;41626;53.098;6.168;2023-06-05T04:56:32;3.15;;;2.53;;
55720;SDS011;41626;53.098;6.168;2023-06-05T04:58:59;3.20;;;2.90;;
55720;SDS011;41626;53.098;6.168;2023-06-05T05:01:27;4.05;;;3.42;;
55720;SDS011;41626;53.098;6.168;2023-06-05T05:03:53;3.72;;;3.03;;
55720;SDS011;41626;53.098;6.168;2023-06-05T05:06:19;3.47;;;3.10;;
55720;SDS011;41626;53.098;6.168;2023-06-05T05:08:46;4.38;;;2.97;;
55720;SDS011;41626;53.098;6.168;2023-06-05T05:11:15;6.22;;;2.75;;
55720;SDS011;41626;53.098;6.168;2023-06-05T05:13:42;2.30;;;1.90;;
55720;SDS011;41626;53.098;6.168;2023-06-05T05:16:08;3.40;;;2.00;;
55720;SDS011;41626;53.098;6.168;2023-06-05T05:18:37;2.40;;;1.55;;
55720;SDS011;41626;53.098;6.168;2023-06-05T05:21:04;3.47;;;1.90;;
55720;SDS011;41626;53.098;6.168;2023-06-05T05:23:30;3.58;;;2.15;;
55720;SDS011;41626;53.098;6.168;2023-06-05T05:25:56;1.85;;;1.60;;
55720;SDS011;41626;53.098;6.168;2023-06-05T05:28:22;2.53;;;1.77;;
55720;SDS011;41626;53.098;6.168;2023-06-05T05:30:48;1.97;;;1.70;;
55720;SDS011;41626;53.098;6.168;2023-06-05T05:33:13;2.77;;;1.83;;
55720;SDS011;41626;53.098;6.168;2023-06-05T05:35:40;3.72;;;1.90;;
55720;SDS011;41626;53.098;6.168;2023-06-05T05:38:06;3.63;;;2.22;;
55720;SDS011;41626;53.098;6.168;2023-06-05T05:40:32;2.50;;;1.90;;
55720;SDS011;41626;53.098;6.168;2023-06-05T05:42:57;2.10;;;1.77;;
55720;SDS011;41626;53.098;6.168;2023-06-05T05:45:23;2.65;;;1.77;;
55720;SDS011;41626;53.098;6.168;2023-06-05T05:47:49;2.20;;;1.73;;
55720;SDS011;41626;53.098;6.168;2023-06-05T05:50:14;2.47;;;1.80;;
55720;SDS011;41626;53.098;6.168;2023-06-05T05:52:40;2.70;;;1.90;;
55720;SDS011;41626;53.098;6.168;2023-06-05T05:55:08;2.30;;;2.00;;
55720;SDS011;41626;53.098;6.168;2023-06-05T05:57:34;2.63;;;1.80;;
55720;SDS011;41626;53.098;6.168;2023-06-05T06:00:00;3.08;;;2.60;;
55720;SDS011;41626;53.098;6.168;2023-06-05T06:02:26;2.85;;;1.90;;
55720;SDS011;41626;53.098;6.168;2023-06-05T06:04:53;2.27;;;1.50;;
55720;SDS011;41626;53.098;6.168;2023-06-05T06:07:19;1.60;;;1.45;;
55720;SDS011;41626;53.098;6.168;2023-06-05T06:09:45;2.53;;;1.88;;
55720;SDS011;41626;53.098;6.168;2023-06-05T06:12:11;3.45;;;1.90;;
55720;SDS011;41626;53.098;6.168;2023-06-05T06:14:36;2.60;;;2.13;;
55720;SDS011;41626;53.098;6.168;2023-06-05T06:17:03;3.30;;;2.30;;
55720;SDS011;41626;53.098;6.168;2023-06-05T06:19:30;2.80;;;1.90;;
55720;SDS011;41626;53.098;6.168;2023-06-05T06:21:58;2.47;;;2.28;;
55720;SDS011;41626;53.098;6.168;2023-06-05T06:24:23;2.10;;;1.90;;
55720;SDS011;41626;53.098;6.168;2023-06-05T06:26:49;2.80;;;2.60;;
55720;SDS011;41626;53.098;6.168;2023-06-05T06:29:20;4.87;;;2.43;;
55720;SDS011;41626;53.098;6.168;2023-06-05T06:31:48;2.40;;;2.10;;
55720;SDS011;41626;53.098;6.168;2023-06-05T06:34:15;3.73;;;2.20;;
55720;SDS011;41626;53.098;6.168;2023-06-05T06:36:41;4.70;;;2.10;;
55720;SDS011;41626;53.098;6.168;2023-06-05T06:39:12;5.40;;;2.15;;
55720;SDS011;41626;53.098;6.168;2023-06-05T06:41:38;2.97;;;2.17;;
55720;SDS011;41626;53.098;6.168;2023-06-05T06:44:04;5.00;;;2.22;;
55720;SDS011;41626;53.098;6.168;2023-06-05T06:46:30;2.42;;;1.83;;
55720;SDS011;41626;53.098;6.168;2023-06-05T06:48:57;3.83;;;2.15;;
55720;SDS011;41626;53.098;6.168;2023-06-05T06:51:23;4.88;;;2.90;;
55720;SDS011;41626;53.098;6.168;2023-06-05T06:53:49;3.15;;;1.83;;
55720;SDS011;41626;53.098;6.168;2023-06-05T06:56:16;3.03;;;2.33;;
55720;SDS011;41626;53.098;6.168;2023-06-05T06:58:43;2.95;;;2.10;;
55720;SDS011;41626;53.098;6.168;2023-06-05T07:01:10;5.03;;;2.20;;
55720;SDS011;41626;53.098;6.168;2023-06-05T07:03:38;4.75;;;2.40;;
55720;SDS011;41626;53.098;6.168;2023-06-05T07:06:05;3.93;;;2.57;;
55720;SDS011;41626;53.098;6.168;2023-06-05T07:08:30;3.90;;;1.90;;
55720;SDS011;41626;53.098;6.168;2023-06-05T07:10:56;3.73;;;2.00;;
55720;SDS011;41626;53.098;6.168;2023-06-05T07:13:22;3.75;;;1.85;;
55720;SDS011;41626;53.098;6.168;2023-06-05T07:15:48;4.25;;;2.70;;
55720;SDS011;41626;53.098;6.168;2023-06-05T07:18:15;4.10;;;2.50;;
55720;SDS011;41626;53.098;6.168;2023-06-05T07:20:42;3.90;;;2.28;;
55720;SDS011;41626;53.098;6.168;2023-06-05T07:23:08;3.00;;;2.50;;
55720;SDS011;41626;53.098;6.168;2023-06-05T07:25:33;3.33;;;2.45;;
55720;SDS011;41626;53.098;6.168;2023-06-05T07:27:59;3.25;;;2.30;;
55720;SDS011;41626;53.098;6.168;2023-06-05T07:30:28;4.07;;;2.20;;
55720;SDS011;41626;53.098;6.168;2023-06-05T07:32:54;2.30;;;1.95;;
55720;SDS011;41626;53.098;6.168;2023-06-05T07:35:20;3.15;;;2.15;;
55720;SDS011;41626;53.098;6.168;2023-06-05T07:37:46;2.57;;;2.37;;
55720;SDS011;41626;53.098;6.168;2023-06-05T07:40:12;4.23;;;2.10;;
55720;SDS011;41626;53.098;6.168;2023-06-05T07:42:38;2.30;;;2.03;;
55720;SDS011;41626;53.098;6.168;2023-06-05T07:45:04;4.40;;;2.70;;
55720;SDS011;41626;53.098;6.168;2023-06-05T07:47:30;4.00;;;2.55;;
55720;SDS011;41626;53.098;6.168;2023-06-05T07:49:59;4.47;;;2.40;;
55720;SDS011;41626;53.098;6.168;2023-06-05T07:52:32;4.23;;;2.77;;
55720;SDS011;41626;53.098;6.168;2023-06-05T07:54:58;3.78;;;2.97;;
55720;SDS011;41626;53.098;6.168;2023-06-05T07:57:24;3.20;;;2.40;;
55720;SDS011;41626;53.098;6.168;2023-06-05T07:59:50;3.47;;;2.40;;
55720;SDS011;41626;53.098;6.168;2023-06-05T08:02:18;4.22;;;2.85;;
55720;SDS011;41626;53.098;6.168;2023-06-05T08:04:44;3.83;;;2.73;;
55720;SDS011;41626;53.098;6.168;2023-06-05T08:07:10;4.07;;;2.80;;
55720;SDS011;41626;53.098;6.168;2023-06-05T08:09:36;4.88;;;2.60;;
55720;SDS011;41626;53.098;6.168;2023-06-05T08:12:03;4.13;;;3.10;;
55720;SDS011;41626;53.098;6.168;2023-06-05T08:14:29;5.72;;;2.70;;
55720;SDS011;41626;53.098;6.168;2023-06-05T08:16:55;3.63;;;3.08;;
55720;SDS011;41626;53.098;6.168;2023-06-05T08:19:21;4.00;;;3.00;;
55720;SDS011;41626;53.098;6.168;2023-06-05T08:21:49;4.93;;;3.10;;
55720;SDS011;41626;53.098;6.168;2023-06-05T08:24:17;4.13;;;2.92;;
55720;SDS011;41626;53.098;6.168;2023-06-05T08:26:43;4.68;;;3.20;;
55720;SDS011;41626;53.098;6.168;2023-06-05T08:29:08;4.28;;;2.85;;
55720;SDS011;41626;53.098;6.168;2023-06-05T08:31:34;6.07;;;2.80;;
55720;SDS011;41626;53.098;6.168;2023-06-05T08:34:01;5.70;;;3.60;;
55720;SDS011;41626;53.098;6.168;2023-06-05T08:36:27;3.90;;;2.88;;
55720;SDS011;41626;53.098;6.168;2023-06-05T08:38:53;3.90;;;3.30;;
55720;SDS011;41626;53.098;6.168;2023-06-05T08:41:19;5.03;;;2.85;;
55720;SDS011;41626;53.098;6.168;2023-06-05T08:43:46;4.03;;;2.80;;
55720;SDS011;41626;53.098;6.168;2023-06-05T08:46:13;3.67;;;2.80;;
55720;SDS011;41626;53.098;6.168;2023-06-05T08:48:43;3.38;;;3.08;;
55720;SDS011;41626;53.098;6.168;2023-06-05T08:51:10;6.55;;;3.03;;
55720;SDS011;41626;53.098;6.168;2023-06-05T08:53:38;4.05;;;3.15;;
55720;SDS011;41626;53.098;6.168;2023-06-05T08:56:04;3.72;;;2.58;;
55720;SDS011;41626;53.098;6.168;2023-06-05T08:58:31;6.10;;;3.90;;
55720;SDS011;41626;53.098;6.168;2023-06-05T09:00:58;4.90;;;3.03;;
55720;SDS011;41626;53.098;6.168;2023-06-05T09:03:24;4.13;;;2.58;;
55720;SDS011;41626;53.098;6.168;2023-06-05T09:05:51;3.35;;;2.70;;
55720;SDS011;41626;53.098;6.168;2023-06-05T09:08:19;4.30;;;2.92;;
55720;SDS011;41626;53.098;6.168;2023-06-05T09:11:18;3.88;;;3.13;;
55720;SDS011;41626;53.098;6.168;2023-06-05T09:13:44;4.75;;;2.80;;
55720;SDS011;41626;53.098;6.168;2023-06-05T09:16:11;3.15;;;2.70;;
55720;SDS011;41626;53.098;6.168;2023-06-05T09:18:50;3.45;;;2.50;;
55720;SDS011;41626;53.098;6.168;2023-06-05T09:21:18;6.07;;;3.30;;
55720;SDS011;41626;53.098;6.168;2023-06-05T09:23:44;4.90;;;2.35;;
55720;SDS011;41626;53.098;6.168;2023-06-05T09:26:10;3.58;;;2.67;;
55720;SDS011;41626;53.098;6.168;2023-06-05T09:28:53;4.10;;;2.85;;
55720;SDS011;41626;53.098;6.168;2023-06-05T09:31:23;7.63;;;2.90;;
55720;SDS011;41626;53.098;6.168;2023-06-05T09:33:55;3.63;;;2.40;;
55720;SDS011;41626;53.098;6.168;2023-06-05T09:36:21;4.80;;;2.63;;
55720;SDS011;41626;53.098;6.168;2023-06-05T09:38:48;3.65;;;2.85;;
55720;SDS011;41626;53.098;6.168;2023-06-05T09:41:15;5.10;;;2.90;;
55720;SDS011;41626;53.098;6.168;2023-06-05T09:43:44;12.82;;;4.80;;
55720;SDS011;41626;53.098;6.168;2023-06-05T09:46:13;13.38;;;4.60;;
55720;SDS011;41626;53.098;6.168;2023-06-05T09:48:40;2.77;;;2.57;;
55720;SDS011;41626;53.098;6.168;2023-06-05T09:53:43;4.47;;;2.70;;
55720;SDS011;41626;53.098;6.168;2023-06-05T09:56:17;5.38;;;2.78;;
55720;SDS011;41626;53.098;6.168;2023-06-05T09:58:48;3.63;;;2.83;;
55720;SDS011;41626;53.098;6.168;2023-06-05T10:01:34;3.35;;;2.63;;
55720;SDS011;41626;53.098;6.168;2023-06-05T10:04:06;4.75;;;3.10;;
55720;SDS011;41626;53.098;6.168;2023-06-05T10:06:33;5.05;;;3.25;;
55720;SDS011;41626;53.098;6.168;2023-06-05T10:09:00;3.90;;;2.90;;
55720;SDS011;41626;53.098;6.168;2023-06-05T10:11:26;5.13;;;3.33;;
55720;SDS011;41626;53.098;6.168;2023-06-05T10:13:52;4.53;;;3.72;;
55720;SDS011;41626;53.098;6.168;2023-06-05T10:16:19;5.28;;;3.42;;
55720;SDS011;41626;53.098;6.168;2023-06-05T10:18:46;3.22;;;2.88;;
55720;SDS011;41626;53.098;6.168;2023-06-05T10:21:15;2.90;;;2.60;;
55720;SDS011;41626;53.098;6.168;2023-06-05T10:23:49;3.22;;;2.83;;
55720;SDS011;41626;53.098;6.168;2023-06-05T10:26:33;3.20;;;2.72;;
55720;SDS011;41626;53.098;6.168;2023-06-05T10:29:13;4.60;;;2.73;;
55720;SDS011;41626;53.098;6.168;2023-06-05T10:31:48;3.55;;;2.90;;
55720;SDS011;41626;53.098;6.168;2023-06-05T10:34:36;4.23;;;2.90;;
55720;SDS011;41626;53.098;6.168;2023-06-05T10:40:04;3.95;;;2.90;;
55720;SDS011;41626;53.098;6.168;2023-06-05T10:42:31;3.80;;;3.10;;
55720;SDS011;41626;53.098;6.168;2023-06-05T10:44:56;3.70;;;2.63;;
55720;SDS011;41626;53.098;6.168;2023-06-05T10:52:41;3.50;;;2.47;;
55720;SDS011;41626;53.098;6.168;2023-06-05T10:55:07;4.45;;;2.70;;
55720;SDS011;41626;53.098;6.168;2023-06-05T11:00:35;3.55;;;2.63;;
55720;SDS011;41626;53.098;6.168;2023-06-05T11:03:04;3.30;;;3.00;;
55720;SDS011;41626;53.098;6.168;2023-06-05T11:05:31;2.77;;;2.43;;
55720;SDS011;41626;53.098;6.168;2023-06-05T11:08:16;3.97;;;2.50;;
55720;SDS011;41626;53.098;6.168;2023-06-05T11:11:01;3.78;;;2.60;;
55720;SDS011;41626;53.098;6.168;2023-06-05T11:16:27;3.72;;;2.58;;
55720;SDS011;41626;53.098;6.168;2023-06-05T11:18:54;2.65;;;2.10;;
55720;SDS011;41626;53.098;6.168;2023-06-05T11:24:28;2.63;;;2.42;;
55720;SDS011;41626;53.098;6.168;2023-06-05T11:26:53;5.13;;;2.63;;
55720;SDS011;41626;53.098;6.168;2023-06-05T11:29:19;2.83;;;2.33;;
55720;SDS011;41626;53.098;6.168;2023-06-05T11:31:47;3.60;;;2.50;;
55720;SDS011;41626;53.098;6.168;2023-06-05T11:34:13;3.10;;;2.47;;
55720;SDS011;41626;53.098;6.168;2023-06-05T11:36:40;6.05;;;2.90;;
55720;SDS011;41626;53.098;6.168;2023-06-05T11:39:06;2.92;;;2.20;;
55720;SDS011;41626;53.098;6.168;2023-06-05T11:41:32;2.67;;;2.47;;
55720;SDS011;41626;53.098;6.168;2023-06-05T11:43:58;3.30;;;2.60;;
55720;SDS011;41626;53.098;6.168;2023-06-05T11:46:42;3.43;;;2.03;;
55720;SDS011;41626;53.098;6.168;2023-06-05T11:49:22;2.30;;;2.10;;
55720;SDS011;41626;53.098;6.168;2023-06-05T11:51:50;3.00;;;2.15;;
55720;SDS011;41626;53.098;6.168;2023-06-05T11:54:29;3.43;;;2.10;;
55720;SDS011;41626;53.098;6.168;2023-06-05T11:57:02;3.38;;;2.47;;
55720;SDS011;41626;53.098;6.168;2023-06-05T11:59:36;4.15;;;2.17;;
55720;SDS011;41626;53.098;6.168;2023-06-05T12:02:02;4.18;;;2.53;;
55720;SDS011;41626;53.098;6.168;2023-06-05T12:04:29;5.32;;;2.40;;
55720;SDS011;41626;53.098;6.168;2023-06-05T12:06:58;2.35;;;2.15;;
55720;SDS011;41626;53.098;6.168;2023-06-05T12:09:27;2.78;;;2.15;;
55720;SDS011;41626;53.098;6.168;2023-06-05T12:11:52;1.63;;;1.53;;
55720;SDS011;41626;53.098;6.168;2023-06-05T12:14:31;2.20;;;2.00;;
55720;SDS011;41626;53.098;6.168;2023-06-05T12:16:58;3.05;;;2.22;;
55720;SDS011;41626;53.098;6.168;2023-06-05T12:19:24;6.15;;;2.50;;
55720;SDS011;41626;53.098;6.168;2023-06-05T12:21:50;5.18;;;2.20;;
55720;SDS011;41626;53.098;6.168;2023-06-05T12:24:26;2.50;;;2.30;;
55720;SDS011;41626;53.098;6.168;2023-06-05T12:26:56;4.47;;;2.92;;
55720;SDS011;41626;53.098;6.168;2023-06-05T12:29:27;4.80;;;2.47;;
55720;SDS011;41626;53.098;6.168;2023-06-05T12:31:58;2.70;;;2.15;;
55720;SDS011;41626;53.098;6.168;2023-06-05T12:34:37;2.90;;;2.30;;
55720;SDS011;41626;53.098;6.168;2023-06-05T12:37:05;2.97;;;2.25;;
55720;SDS011;41626;53.098;6.168;2023-06-05T12:39:33;3.47;;;2.05;;
55720;SDS011;41626;53.098;6.168;2023-06-05T12:42:00;3.22;;;1.75;;
55720;SDS011;41626;53.098;6.168;2023-06-05T12:44:25;3.53;;;2.60;;
55720;SDS011;41626;53.098;6.168;2023-06-05T12:46:51;4.03;;;2.30;;
55720;SDS011;41626;53.098;6.168;2023-06-05T12:49:17;6.67;;;3.60;;
55720;SDS011;41626;53.098;6.168;2023-06-05T12:51:43;3.78;;;2.15;;
55720;SDS011;41626;53.098;6.168;2023-06-05T12:54:08;3.90;;;2.10;;
55720;SDS011;41626;53.098;6.168;2023-06-05T12:56:35;3.47;;;2.55;;
55720;SDS011;41626;53.098;6.168;2023-06-05T12:59:01;3.30;;;2.65;;
55720;SDS011;41626;53.098;6.168;2023-06-05T13:01:27;3.05;;;2.33;;
55720;SDS011;41626;53.098;6.168;2023-06-05T13:03:54;4.20;;;2.78;;
55720;SDS011;41626;53.098;6.168;2023-06-05T13:06:20;3.35;;;2.55;;
55720;SDS011;41626;53.098;6.168;2023-06-05T13:08:46;3.10;;;2.70;;
55720;SDS011;41626;53.098;6.168;2023-06-05T13:11:12;5.73;;;3.43;;
55720;SDS011;41626;53.098;6.168;2023-06-05T13:13:38;5.40;;;2.38;;
55720;SDS011;41626;53.098;6.168;2023-06-05T13:16:04;6.05;;;2.60;;
55720;SDS011;41626;53.098;6.168;2023-06-05T13:18:32;3.77;;;2.90;;
55720;SDS011;41626;53.098;6.168;2023-06-05T13:20:58;4.03;;;2.67;;
55720;SDS011;41626;53.098;6.168;2023-06-05T13:23:24;3.75;;;2.95;;
55720;SDS011;41626;53.098;6.168;2023-06-05T13:25:50;4.30;;;2.60;;
55720;SDS011;41626;53.098;6.168;2023-06-05T13:28:16;3.53;;;2.65;;
55720;SDS011;41626;53.098;6.168;2023-06-05T13:30:42;4.35;;;3.08;;
55720;SDS011;41626;53.098;6.168;2023-06-05T13:33:07;3.67;;;2.20;;
55720;SDS011;41626;53.098;6.168;2023-06-05T13:35:33;4.43;;;2.70;;
55720;SDS011;41626;53.098;6.168;2023-06-05T13:37:59;4.47;;;2.83;;
55720;SDS011;41626;53.098;6.168;2023-06-05T13:40:24;5.50;;;2.60;;
55720;SDS011;41626;53.098;6.168;2023-06-05T13:42:52;5.05;;;2.50;;
55720;SDS011;41626;53.098;6.168;2023-06-05T13:45:19;3.42;;;2.90;;
55720;SDS011;41626;53.098;6.168;2023-06-05T13:47:44;3.58;;;2.75;;
55720;SDS011;41626;53.098;6.168;2023-06-05T13:50:11;3.72;;;2.95;;
55720;SDS011;41626;53.098;6.168;2023-06-05T13:52:36;6.60;;;3.70;;
55720;SDS011;41626;53.098;6.168;2023-06-05T13:55:03;4.70;;;3.13;;
55720;SDS011;41626;53.098;6.168;2023-06-05T13:57:30;5.18;;;3.72;;
55720;SDS011;41626;53.098;6.168;2023-06-05T13:59:55;3.58;;;2.80;;
55720;SDS011;41626;53.098;6.168;2023-06-05T14:02:21;3.50;;;2.80;;
55720;SDS011;41626;53.098;6.168;2023-06-05T14:04:47;4.07;;;3.13;;
55720;SDS011;41626;53.098;6.168;2023-06-05T14:07:13;5.23;;;3.43;;
55720;SDS011;41626;53.098;6.168;2023-06-05T14:09:38;4.10;;;3.10;;
55720;SDS011;41626;53.098;6.168;2023-06-05T14:12:04;5.00;;;3.53;;
55720;SDS011;41626;53.098;6.168;2023-06-05T14:14:30;5.10;;;3.50;;
55720;SDS011;41626;53.098;6.168;2023-06-05T14:16:56;6.07;;;4.73;;
55720;SDS011;41626;53.098;6.168;2023-06-05T14:19:21;5.85;;;4.55;;
55720;SDS011;41626;53.098;6.168;2023-06-05T14:21:47;7.80;;;3.60;;
55720;SDS011;41626;53.098;6.168;2023-06-05T14:24:14;5.60;;;4.60;;
55720;SDS011;41626;53.098;6.168;2023-06-05T14:26:40;5.32;;;4.57;;
55720;SDS011;41626;53.098;6.168;2023-06-05T14:29:06;7.82;;;4.65;;
55720;SDS011;41626;53.098;6.168;2023-06-05T14:31:32;5.70;;;3.80;;
55720;SDS011;41626;53.098;6.168;2023-06-05T14:33:58;5.15;;;4.68;;
55720;SDS011;41626;53.098;6.168;2023-06-05T14:36:23;7.70;;;4.70;;
55720;SDS011;41626;53.098;6.168;2023-06-05T14:38:50;5.93;;;4.60;;
55720;SDS011;41626;53.098;6.168;2023-06-05T14:41:16;4.97;;;4.47;;
55720;SDS011;41626;53.098;6.168;2023-06-05T14:43:42;6.20;;;5.00;;
55720;SDS011;41626;53.098;6.168;2023-06-05T14:46:07;6.40;;;4.70;;
55720;SDS011;41626;53.098;6.168;2023-06-05T14:48:33;8.93;;;5.17;;
55720;SDS011;41626;53.098;6.168;2023-06-05T14:50:58;10.57;;;5.20;;
55720;SDS011;41626;53.098;6.168;2023-06-05T14:53:24;6.63;;;4.33;;
55720;SDS011;41626;53.098;6.168;2023-06-05T14:55:50;5.83;;;4.60;;
55720;SDS011;41626;53.098;6.168;2023-06-05T14:58:16;6.63;;;4.23;;
55720;SDS011;41626;53.098;6.168;2023-06-05T15:00:42;6.13;;;4.80;;
55720;SDS011;41626;53.098;6.168;2023-06-05T15:03:07;6.65;;;4.75;;
55720;SDS011;41626;53.098;6.168;2023-06-05T15:05:33;6.03;;;4.88;;
55720;SDS011;41626;53.098;6.168;2023-06-05T15:07:59;5.80;;;4.53;;
55720;SDS011;41626;53.098;6.168;2023-06-05T15:10:25;6.82;;;5.57;;
55720;SDS011;41626;53.098;6.168;2023-06-05T15:12:52;8.15;;;4.50;;
55720;SDS011;41626;53.098;6.168;2023-06-05T15:15:22;7.13;;;5.00;;